Time;durP1;ratioP1;P1;durP2;ratioP2;P2;SDS_P1;SDS_P2;PMS_P1;PMS_P2;Temp;Humidity;BMP_temperature;BMP_pressure;BME280_temperature;BME280_humidity;BME280_pressure;Samples;Min_cycle;Max_cycle;Signal;HPM_P1;HPM_P2
2023/03/28 00:02:23;;;;;;;;;;;;;;;-0.92;75.31;99976.86;133806;1300;23855;-87
2023/03/28 00:05:55;;;;;;;;;;;;;;;-0.93;75.01;99978.15;133659;1301;22513;-85
2023/03/28 00:09:04;;;;;;;;;;;;;;;-0.93;75.10;99973.98;134262;1296;22469;-87
2023/03/28 00:12:08;;;;;;;;;;;;;;;-0.92;75.41;99972.05;134290;1296;22425;-86
2023/03/28 00:15:22;;;;;;;;;;;;;;;;;;;;;
2023/03/28 00:18:46;;;;;;;;;;;;;;;;;;;;;
2023/03/28 00:22:07;;;;;;;;;;;;;;;-0.91;75.84;99963.97;134293;1295;22430;-86
2023/03/28 00:25:35;;;;;;;;;;;;;;;-0.91;75.87;99959.63;134362;1296;22523;-87
2023/03/28 00:28:36;;;;;;;;;;;;;;;-0.92;75.83;99956.59;134368;1291;22682;-86
2023/03/28 00:32:04;;;;;;;;;;;;;;;-0.94;76.00;99954.42;134279;1296;22455;-86
2023/03/28 00:35:39;;;;;;;;;;;;;;;;;;;;;
2023/03/28 00:38:46;;;;;;;;;;;;;;;-0.96;76.52;99952.29;134124;1296;22466;-86
2023/03/28 00:41:54;;;;;;;;;;;;;;;-0.96;76.54;99947.07;134199;1296;22460;-87
2023/03/28 00:44:55;;;;;;;;;;;;;;;-0.96;76.31;99940.69;134251;1297;22495;-86
2023/03/28 00:48:05;;;;;;;;;;;;;;;-0.97;77.04;99940.54;134215;1297;22502;-86
2023/03/28 00:51:23;;;;;;;;;;;;;;;;;;;;;
2023/03/28 00:54:26;;;;;;;;;;;;;;;-1.01;76.68;99939.77;134237;1291;22463;-86
2023/03/28 00:57:57;;;;;;;;;;;;;;;;;;;;;
2023/03/28 01:01:19;;;;;;;;;;;;;;;-1.00;77.07;99939.88;134082;1296;22472;-85
2023/03/28 01:04:21;;;;;;;;;;;;;;;-1.01;77.00;99935.30;134244;1297;22455;-85
2023/03/28 01:07:46;;;;;;;;;;;;;;;-1.02;76.96;99944.17;134090;1298;22443;-85
2023/03/28 01:10:59;;;;;;;;;;;;;;;-1.03;76.84;99938.72;134191;1296;22449;-87
2023/03/28 01:14:05;;;;;;;;;;;;;;;-1.06;77.42;99940.98;134115;1298;22691;-86
2023/03/28 01:17:32;;;;;;;;;;;;;;;-1.07;77.59;99935.83;134076;1298;22443;-87
2023/03/28 01:21:02;;;;;;;;;;;;;;;-1.07;77.77;99935.49;134231;1297;22445;-86
2023/03/28 01:24:12;;;;;;;;;;;;;;;-1.08;78.04;99935.86;134231;1291;22464;-86
2023/03/28 01:31:52;;;;;;;;;;;;;;;-1.05;78.13;99939.33;134008;1297;22481;-86
2023/03/28 01:35:36;;;;;;;;;;;;;;;-1.03;78.10;99932.96;133957;1297;22462;-86
2023/03/28 01:38:54;;;;;;;;;;;;;;;-0.99;78.59;99925.38;134069;1297;23227;-86
2023/03/28 01:42:16;;;;;;;;;;;;;;;-0.94;78.72;99919.70;134190;1298;23296;-86
2023/03/28 01:45:22;;;;;;;;;;;;;;;-0.90;78.99;99912.55;134163;1297;23234;-87
2023/03/28 01:48:29;;;;;;;;;;;;;;;-0.88;78.85;99913.79;134336;1298;22436;-86
2023/03/28 01:51:53;;;;;;;;;;;;;;;-0.86;78.94;99910.33;134330;1296;23095;-86
2023/03/28 01:55:17;;;;;;;;;;;;;;;-0.82;79.08;99909.91;134223;1298;22445;-86
2023/03/28 01:58:24;;;;;;;;;;;;;;;-0.78;79.02;99908.23;134134;1298;23172;-86
2023/03/28 02:01:45;;;;;;;;;;;;;;;-0.74;79.33;99910.61;134142;1298;22432;-85
2023/03/28 02:04:50;;;;;;;;;;;;;;;-0.70;79.44;99915.20;134183;1298;22451;-85
2023/03/28 02:07:53;;;;;;;;;;;;;;;-0.65;79.46;99912.30;134102;1299;22490;-86
2023/03/28 02:15:23;;;;;;;;;;;;;;;-0.55;79.80;99909.89;134171;1298;22616;-86
2023/03/28 02:19:00;;;;;;;;;;;;;;;-0.52;79.50;99909.52;133869;1298;23225;-85
2023/03/28 02:22:32;;;;;;;;;;;;;;;-0.52;79.40;99909.64;134051;1296;22527;-86
2023/03/28 02:25:41;;;;;;;;;;;;;;;-0.51;79.38;99908.73;134396;1296;22454;-86
2023/03/28 02:30:16;;;;;;;;;;;;;;;-0.49;79.53;99904.96;134114;1295;22512;-87
2023/03/28 02:33:40;;;;;;;;;;;;;;;;;;;;;
2023/03/28 02:36:52;;;;;;;;;;;;;;;-0.43;79.38;99908.77;134170;1297;22423;-86
2023/03/28 02:40:00;;;;;;;;;;;;;;;-0.41;79.61;99908.96;134321;1296;23218;-86
2023/03/28 02:43:08;;;;;;;;;;;;;;;-0.37;79.50;99913.41;134076;1301;22482;-86
2023/03/28 02:46:16;;;;;;;;;;;;;;;-0.34;79.50;99913.54;134369;1298;23161;-85
2023/03/28 02:50:12;;;;;;;;;;;;;;;-0.31;79.40;99919.09;134361;1296;22525;-86
2023/03/28 02:53:34;;;;;;;;;;;;;;;-0.29;79.54;99920.16;134385;1297;22473;-86
2023/03/28 02:56:55;;;;;;;;;;;;;;;-0.26;80.02;99917.32;134138;1297;22446;-86
2023/03/28 03:00:15;;;;;;;;;;;;;;;-0.23;79.78;99912.13;134205;1298;22430;-85
2023/03/28 03:03:36;;;;;;;;;;;;;;;-0.22;79.68;99912.41;134184;1297;23107;-86
2023/03/28 03:07:01;;;;;;;;;;;;;;;-0.21;79.62;99913.41;134329;1297;22458;-85
2023/03/28 03:10:07;;;;;;;;;;;;;;;-0.21;79.68;99912.32;134201;1295;22472;-85
2023/03/28 03:13:09;;;;;;;;;;;;;;;-0.19;79.88;99920.36;134169;1296;22391;-85
2023/03/28 03:16:13;;;;;;;;;;;;;;;-0.18;79.96;99919.05;134109;1295;22449;-86
2023/03/28 03:19:17;;;;;;;;;;;;;;;-0.16;80.05;99916.36;134364;1295;22431;-85
2023/03/28 03:22:28;;;;;;;;;;;;;;;-0.15;80.10;99919.59;134125;1298;22460;-86
2023/03/28 03:25:54;;;;;;;;;;;;;;;-0.13;80.30;99919.47;134395;1296;22452;-85
2023/03/28 03:29:00;;;;;;;;;;;;;;;-0.13;80.49;99926.03;134215;1296;22460;-85
2023/03/28 03:32:00;;;;;;;;;;;;;;;-0.17;80.89;99928.58;134214;1296;22438;-85
2023/03/28 03:35:15;;;;;;;;;;;;;;;-0.28;81.37;99926.54;134372;1296;22445;-85
2023/03/28 03:38:20;;;;;;;;;;;;;;;-0.36;81.38;99930.89;134146;1295;22429;-85
2023/03/28 03:41:32;;;;;;;;;;;;;;;-0.41;81.57;99928.97;134404;1296;22452;-86
2023/03/28 03:44:46;;;;;;;;;;;;;;;-0.46;82.03;99933.44;134347;1296;22511;-85
2023/03/28 03:47:56;;;;;;;;;;;;;;;-0.50;81.95;99931.45;134361;1298;22428;-85
2023/03/28 03:51:00;;;;;;;;;;;;;;;-0.52;81.95;99934.17;134372;1296;22535;-87
2023/03/28 03:54:04;;;;;;;;;;;;;;;-0.53;82.49;99928.67;134389;1291;22446;-85
2023/03/28 03:57:11;;;;;;;;;;;;;;;-0.52;82.08;99933.13;134394;1295;22412;-86
2023/03/28 04:00:13;;;;;;;;;;;;;;;-0.51;82.22;99937.07;134377;1296;22497;-86
2023/03/28 04:03:35;;;;;;;;;;;;;;;;;;;;;
2023/03/28 04:06:44;;;;;;;;;;;;;;;-0.55;82.22;99945.48;134106;1299;23234;-86
2023/03/28 04:10:14;;;;;;;;;;;;;;;;;;;;;
2023/03/28 04:13:59;;;;;;;;;;;;;;;-0.49;82.39;99953.27;134258;1296;23204;-86
2023/03/28 04:17:30;;;;;;;;;;;;;;;;;;;;;
2023/03/28 04:20:54;;;;;;;;;;;;;;;-0.51;81.88;99961.03;134192;1295;22458;-86
2023/03/28 04:24:23;;;;;;;;;;;;;;;-0.53;81.82;99960.14;134338;1297;22453;-86
2023/03/28 04:28:08;;;;;;;;;;;;;;;-0.54;81.67;99967.48;134158;1296;22439;-87
2023/03/28 04:31:11;;;;;;;;;;;;;;;-0.52;81.46;99975.88;134139;1297;23270;-86
2023/03/28 04:34:38;;;;;;;;;;;;;;;-0.52;81.68;99976.05;134122;1297;22489;-86
2023/03/28 04:37:42;;;;;;;;;;;;;;;-0.51;81.21;99981.55;134095;1297;22465;-86
2023/03/28 04:40:52;;;;;;;;;;;;;;;-0.49;80.35;99978.82;134065;1296;23129;-76
2023/03/28 04:44:08;;;;;;;;;;;;;;;-0.45;79.72;99986.73;134020;1300;23221;-80
2023/03/28 04:47:41;;;;;;;;;;;;;;;-0.43;79.27;99995.80;134012;1298;22564;-82
2023/03/28 04:50:48;;;;;;;;;;;;;;;-0.42;78.36;100001.85;134104;1297;22509;-81
2023/03/28 04:57:54;;;;;;;;;;;;;;;-0.42;76.91;100006.55;134152;1297;23031;-84
2023/03/28 05:01:15;;;;;;;;;;;;;;;-0.41;76.50;100022.09;134132;1297;22472;-81
2023/03/28 05:04:56;;;;;;;;;;;;;;;;;;;;;
2023/03/28 05:08:25;;;;;;;;;;;;;;;-0.46;75.85;100031.64;134166;1293;22448;-81
2023/03/28 05:11:26;;;;;;;;;;;;;;;-0.47;75.67;100040.91;133993;1299;22436;-81
2023/03/28 05:14:27;;;;;;;;;;;;;;;-0.47;75.10;100045.94;134119;1297;22444;-79
2023/03/28 05:17:56;;;;;;;;;;;;;;;;;;;;;
2023/03/28 05:21:27;;;;;;;;;;;;;;;-0.46;75.19;100064.45;134107;1297;22503;-81
2023/03/28 05:25:02;;;;;;;;;;;;;;;;;;;;;
2023/03/28 05:28:59;;;;;;;;;;;;;;;;;;;;;
2023/03/28 05:32:13;;;;;;;;;;;;;;;-0.41;74.68;100077.20;134025;1297;22424;-81
2023/03/28 05:40:12;;;;;;;;;;;;;;;-0.36;73.27;100090.66;134061;1297;23211;-80
2023/03/28 05:43:18;;;;;;;;;;;;;;;;;;;;;
2023/03/28 05:47:32;;;;;;;;;;;;;;;-0.32;73.68;100108.25;134283;1296;22452;-82
2023/03/28 05:50:56;;;;;;;;;;;;;;;;;;;;;
2023/03/28 05:54:48;;;;;;;;;;;;;;;;;;;;;
2023/03/28 05:58:07;;;;;;;;;;;;;;;-0.08;72.79;100118.70;134299;1297;22521;-80
2023/03/28 06:01:22;;;;;;;;;;;;;;;0.16;72.58;100126.77;134193;1297;22431;-80
2023/03/28 06:04:27;;;;;;;;;;;;;;;0.58;72.09;100126.38;134050;1296;22521;-81
2023/03/28 06:07:40;;;;;;;;;;;;;;;0.73;71.40;100129.41;134078;1298;22455;-82
2023/03/28 06:10:47;;;;;;;;;;;;;;;0.87;71.74;100137.66;134314;1296;22445;-82
2023/03/28 06:14:49;;;;;;;;;;;;;;;0.87;71.48;100144.80;133944;1297;22637;-82
2023/03/28 06:19:03;;;;;;;;;;;;;;;0.84;71.64;100153.52;133974;1296;22478;-82
2023/03/28 06:26:56;;;;;;;;;;;;;;;0.68;71.41;100169.28;134289;1296;22523;-82
2023/03/28 06:30:06;;;;;;;;;;;;;;;;;;;;;
2023/03/28 06:33:43;;;;;;;;;;;;;;;0.40;70.90;100184.48;134302;1295;22474;-82
2023/03/28 06:36:50;;;;;;;;;;;;;;;0.36;71.09;100186.70;134153;1295;22446;-84
2023/03/28 06:39:55;;;;;;;;;;;;;;;0.37;71.09;100193.27;134102;1288;22461;-83
2023/03/28 06:43:30;;;;;;;;;;;;;;;;;;;;;
2023/03/28 06:51:16;;;;;;;;;;;;;;;;;;;;;
2023/03/28 06:54:27;;;;;;;;;;;;;;;0.34;69.59;100222.33;134022;1298;22476;-83
2023/03/28 06:57:39;;;;;;;;;;;;;;;0.28;69.63;100227.41;134322;1297;23279;-84
2023/03/28 07:00:56;;;;;;;;;;;;;;;0.22;69.87;100228.78;134193;1297;22452;-83
2023/03/28 07:04:25;;;;;;;;;;;;;;;0.15;69.50;100229.58;134020;1297;23221;-83
2023/03/28 07:07:34;;;;;;;;;;;;;;;0.13;69.69;100244.19;134298;1297;22435;-83
2023/03/28 07:10:59;;;;;;;;;;;;;;;0.12;69.63;100248.77;134182;1297;25700;-83
2023/03/28 07:14:41;;;;;;;;;;;;;;;0.11;69.47;100258.79;134327;1298;23251;-84
2023/03/28 07:17:39;;;;;;;;;;;;;;;0.09;69.32;100266.34;134106;1297;22459;-83
2023/03/28 07:21:07;;;;;;;;;;;;;;;0.15;68.16;100274.48;134262;1298;23239;-83
2023/03/28 07:24:26;;;;;;;;;;;;;;;0.90;69.08;100270.33;134194;1295;22495;-82
2023/03/28 07:27:58;;;;;;;;;;;;;;;1.51;67.21;100271.88;134246;1296;22507;-83
2023/03/28 07:31:19;;;;;;;;;;;;;;;1.45;67.44;100278.52;134312;1297;22486;-84
2023/03/28 07:34:23;;;;;;;;;;;;;;;1.28;66.83;100284.59;134040;1301;23171;-83
2023/03/28 07:38:01;;;;;;;;;;;;;;;1.02;67.07;100289.42;134158;1297;23395;-83
2023/03/28 07:41:25;;;;;;;;;;;;;;;0.76;68.09;100301.45;134272;1297;23247;-81
2023/03/28 07:44:25;;;;;;;;;;;;;;;0.55;68.87;100306.98;134211;1297;22469;-81
2023/03/28 07:47:29;;;;;;;;;;;;;;;0.47;69.84;100310.77;134327;1282;22455;-82
2023/03/28 07:50:43;;;;;;;;;;;;;;;;;;;;;
2023/03/28 07:54:12;;;;;;;;;;;;;;;;;;;;;
2023/03/28 07:57:33;;;;;;;;;;;;;;;;;;;;;
2023/03/28 08:01:23;;;;;;;;;;;;;;;1.53;68.21;100323.67;134073;1298;22474;-83
2023/03/28 08:04:47;;;;;;;;;;;;;;;1.36;67.46;100333.38;134184;1301;23086;-83
2023/03/28 08:08:19;;;;;;;;;;;;;;;1.34;66.39;100335.91;134258;1298;23339;-85
2023/03/28 08:11:40;;;;;;;;;;;;;;;;;;;;;
2023/03/28 08:14:49;;;;;;;;;;;;;;;1.41;66.64;100345.23;134309;1296;22477;-84
2023/03/28 08:17:57;;;;;;;;;;;;;;;1.72;66.74;100343.45;134122;1298;23080;-82
2023/03/28 08:21:09;;;;;;;;;;;;;;;1.83;66.01;100342.00;133991;1297;22423;-84
2023/03/28 08:24:15;;;;;;;;;;;;;;;1.66;65.72;100347.75;134009;1301;22550;-83
2023/03/28 08:27:44;;;;;;;;;;;;;;;1.44;65.31;100346.26;134192;1297;22510;-83
2023/03/28 08:35:22;;;;;;;;;;;;;;;1.33;66.24;100352.40;133416;1302;22670;-83
2023/03/28 08:39:50;;;;;;;;;;;;;;;1.73;66.30;100353.15;133574;1303;23430;-81
2023/03/28 08:43:33;;;;;;;;;;;;;;;2.35;65.60;100345.93;133425;1303;22600;-83
2023/03/28 08:47:20;;;;;;;;;;;;;;;;;;;;;
2023/03/28 08:50:58;;;;;;;;;;;;;;;3.10;62.65;100353.62;133473;1302;22469;-82
2023/03/28 08:54:43;;;;;;;;;;;;;;;;;;;;;
2023/03/28 08:58:33;;;;;;;;;;;;;;;3.58;63.65;100370.33;133053;1303;22509;-84
2023/03/28 09:01:52;;;;;;;;;;;;;;;3.74;63.64;100372.78;133441;1303;23471;-84
2023/03/28 09:05:02;;;;;;;;;;;;;;;3.51;63.71;100382.91;133264;1306;22451;-84
2023/03/28 09:08:32;;;;;;;;;;;;;;;3.11;63.60;100383.96;133338;1303;22591;-84
2023/03/28 09:12:12;;;;;;;;;;;;;;;2.68;63.42;100384.29;133315;1304;22473;-84
2023/03/28 09:16:00;;;;;;;;;;;;;;;;;;;;;
2023/03/28 09:19:18;;;;;;;;;;;;;;;2.02;66.23;100393.63;133305;1303;22470;-84
2023/03/28 09:22:51;;;;;;;;;;;;;;;;;;;;;
2023/03/28 09:26:29;;;;;;;;;;;;;;;;;;;;;
2023/03/28 09:29:44;;;;;;;;;;;;;;;2.55;64.29;100383.94;133318;1304;22485;-85
2023/03/28 09:33:12;;;;;;;;;;;;;;;;;;;;;
2023/03/28 09:36:56;;;;;;;;;;;;;;;3.72;59.18;100379.62;134074;1297;22491;-84
2023/03/28 09:40:28;;;;;;;;;;;;;;;;;;;;;
2023/03/28 09:44:27;;;;;;;;;;;;;;;3.59;57.45;100388.94;133143;1305;22463;-84
2023/03/28 09:48:27;;;;;;;;;;;;;;;3.99;57.18;100389.97;133086;1305;23253;-84
2023/03/28 09:53:08;;;;;;;;;;;;;;;4.40;56.83;100395.20;134170;1297;22570;-84
2023/03/28 09:56:36;;;;;;;;;;;;;;;;;;;;;
2023/03/28 10:00:20;;;;;;;;;;;;;;;2.53;63.56;100455.38;133945;1297;22474;-82
2023/03/28 10:03:33;;;;;;;;;;;;;;;1.81;65.24;100462.70;133819;1298;22452;-82
2023/03/28 10:07:27;;;;;;;;;;;;;;;;;;;;;
2023/03/28 10:11:58;;;;;;;;;;;;;;;1.38;68.06;100467.99;133850;1297;22501;-81
2023/03/28 10:15:18;;;;;;;;;;;;;;;1.28;68.52;100467.02;134131;1297;22483;-82
2023/03/28 10:19:16;;;;;;;;;;;;;;;;;;;;;
2023/03/28 10:22:40;;;;;;;;;;;;;;;0.67;69.26;100485.15;133879;1297;22484;-81
2023/03/28 10:25:43;;;;;;;;;;;;;;;0.44;69.03;100491.77;133998;1297;22446;-83
2023/03/28 10:28:47;;;;;;;;;;;;;;;0.40;69.42;100493.95;134140;1297;22523;-83
2023/03/28 10:31:59;;;;;;;;;;;;;;;0.55;70.04;100492.67;134144;1302;22451;-83
2023/03/28 10:35:42;;;;;;;;;;;;;;;;;;;;;
2023/03/28 10:39:33;;;;;;;;;;;;;;;1.39;68.84;100489.20;133908;1298;22469;-84
2023/03/28 10:43:35;;;;;;;;;;;;;;;1.81;68.65;100489.05;133369;1304;22493;-83
2023/03/28 10:48:02;;;;;;;;;;;;;;;;;;;;;
2023/03/28 10:51:50;;;;;;;;;;;;;;;2.88;66.50;100481.36;134103;1295;22505;-81
2023/03/28 10:55:01;;;;;;;;;;;;;;;3.36;66.13;100482.86;134066;1298;23162;-81
2023/03/28 10:58:43;;;;;;;;;;;;;;;3.70;64.34;100472.29;134283;1296;22417;-82
2023/03/28 11:02:05;;;;;;;;;;;;;;;3.94;63.66;100483.32;134060;1297;22460;-81
2023/03/28 11:05:21;;;;;;;;;;;;;;;4.22;61.24;100488.17;134282;1298;22510;-83
2023/03/28 11:09:00;;;;;;;;;;;;;;;3.83;59.36;100485.35;133680;1301;23266;-84
2023/03/28 11:12:55;;;;;;;;;;;;;;;;;;;;;
2023/03/28 11:16:24;;;;;;;;;;;;;;;4.19;59.99;100492.96;133791;1300;22449;-84
2023/03/28 11:20:32;;;;;;;;;;;;;;;;;;;;;
2023/03/28 11:24:30;;;;;;;;;;;;;;;4.76;58.37;100480.17;133111;1302;22498;-84
2023/03/28 11:27:16;;;;;;;;;;;;;;;5.01;56.43;100484.13;133518;1307;22501;-84
2023/03/28 11:31:14;;;;;;;;;;;;;;;;;;;;;
2023/03/28 11:34:54;;;;;;;;;;;;;;;;;;;;;
2023/03/28 11:38:12;;;;;;;;;;;;;;;3.69;58.41;100534.33;133697;1300;22507;-81
2023/03/28 11:41:20;;;;;;;;;;;;;;;2.69;63.07;100557.63;133671;1301;22471;-82
2023/03/28 11:45:27;;;;;;;;;;;;;;;;;;;;;
2023/03/28 11:48:53;;;;;;;;;;;;;;;1.17;66.50;100556.46;134068;1298;22533;-82
2023/03/28 11:52:46;;;;;;;;;;;;;;;1.11;67.44;100549.15;134031;1301;23313;-82
2023/03/28 11:56:03;;;;;;;;;;;;;;;1.56;68.61;100541.23;134073;1304;23190;-82
2023/03/28 12:00:18;;;;;;;;;;;;;;;2.04;68.27;100545.09;134251;1296;22538;-82
2023/03/28 12:03:16;;;;;;;;;;;;;;;2.35;66.94;100544.29;134172;1297;22996;-82
2023/03/28 12:06:52;;;;;;;;;;;;;;;;;;;;;
2023/03/28 12:10:24;;;;;;;;;;;;;;;2.29;66.38;100558.81;134090;1299;22430;-81
2023/03/28 12:14:04;;;;;;;;;;;;;;;1.77;68.13;100562.09;134250;1301;22479;-82
2023/03/28 12:17:27;;;;;;;;;;;;;;;;;;;;;
2023/03/28 12:20:48;;;;;;;;;;;;;;;1.44;69.46;100571.88;134093;1300;22534;-82
2023/03/28 12:24:44;;;;;;;;;;;;;;;;;;;;;
2023/03/28 12:29:12;;;;;;;;;;;;;;;1.76;72.51;100559.72;134116;1298;23278;-82
2023/03/28 12:32:14;;;;;;;;;;;;;;;2.30;70.44;100540.92;134200;1301;22476;-82
2023/03/28 12:35:37;;;;;;;;;;;;;;;2.65;69.37;100537.85;134241;1298;22456;-82
2023/03/28 12:39:00;;;;;;;;;;;;;;;3.01;67.98;100543.04;134265;1298;22448;-82
2023/03/28 12:42:45;;;;;;;;;;;;;;;;;;;;;
2023/03/28 12:46:48;;;;;;;;;;;;;;;;;;;;;
2023/03/28 12:50:00;;;;;;;;;;;;;;;;;;;;;
2023/03/28 12:53:26;;;;;;;;;;;;;;;;;;;;;
2023/03/28 12:56:48;;;;;;;;;;;;;;;0.94;73.39;100598.81;134191;1301;22447;-82
2023/03/28 13:00:14;;;;;;;;;;;;;;;1.18;74.59;100582.17;134245;1298;23214;-82
2023/03/28 13:03:52;;;;;;;;;;;;;;;1.51;73.77;100576.63;134220;1300;22531;-82
2023/03/28 13:06:59;;;;;;;;;;;;;;;1.80;72.29;100574.25;134169;1295;22540;-82
2023/03/28 13:10:19;;;;;;;;;;;;;;;2.04;71.80;100567.81;134262;1294;23162;-82
2023/03/28 13:13:39;;;;;;;;;;;;;;;2.37;70.77;100566.45;133607;1301;22467;-81
2023/03/28 13:16:49;;;;;;;;;;;;;;;2.63;70.08;100564.20;133574;1302;22481;-83
2023/03/28 13:20:34;;;;;;;;;;;;;;;2.92;69.80;100562.91;133063;1304;22505;-81
2023/03/28 13:23:48;;;;;;;;;;;;;;;2.93;67.76;100571.75;133201;1306;22566;-82
2023/03/28 13:27:22;;;;;;;;;;;;;;;;;;;;;
2023/03/28 13:30:33;;;;;;;;;;;;;;;1.84;68.90;100588.15;133057;1304;22579;-82
2023/03/28 13:33:36;;;;;;;;;;;;;;;1.56;70.38;100585.36;133186;1307;22453;-81
2023/03/28 13:36:48;;;;;;;;;;;;;;;1.71;71.14;100578.49;133078;1306;22454;-81
2023/03/28 13:40:04;;;;;;;;;;;;;;;;;;;;;
2023/03/28 13:43:28;;;;;;;;;;;;;;;2.17;69.07;100578.95;133228;1305;22467;-85
2023/03/28 13:47:10;;;;;;;;;;;;;;;2.41;69.11;100576.18;133124;1310;22501;-80
2023/03/28 13:51:06;;;;;;;;;;;;;;;2.71;68.27;100573.10;133319;1304;22527;-86
2023/03/28 13:54:05;;;;;;;;;;;;;;;2.91;66.37;100569.05;133660;1301;22474;-83
2023/03/28 13:57:26;;;;;;;;;;;;;;;3.06;65.82;100575.01;133580;1295;23415;-83
2023/03/28 14:00:29;;;;;;;;;;;;;;;2.95;64.46;100580.48;133717;1302;22495;-83
2023/03/28 14:03:35;;;;;;;;;;;;;;;2.99;65.32;100584.77;133611;1304;22463;-84
2023/03/28 14:06:40;;;;;;;;;;;;;;;3.28;63.36;100577.17;133973;1300;23273;-82
2023/03/28 14:10:01;;;;;;;;;;;;;;;3.45;60.00;100569.28;133862;1302;22556;-86
2023/03/28 14:16:46;;;;;;;;;;;;;;;3.31;54.86;100581.80;133714;1300;22528;-87
2023/03/28 14:20:01;;;;;;;;;;;;;;;3.15;55.68;100587.48;133758;1301;22474;-85
2023/03/28 14:24:18;;;;;;;;;;;;;;;;;;;;;
2023/03/28 14:27:08;;;;;;;;;;;;;;;2.84;55.72;100599.23;133646;1301;22539;-85
2023/03/28 14:30:27;;;;;;;;;;;;;;;2.71;55.92;100609.20;133705;1300;22482;-90
2023/03/28 14:37:50;;;;;;;;;;;;;;;;;;;;;
2023/03/28 14:41:28;;;;;;;;;;;;;;;2.46;52.61;100603.77;134032;1299;22548;-85
2023/03/28 14:44:41;;;;;;;;;;;;;;;2.41;52.75;100607.73;134310;1297;22430;-85
2023/03/28 14:47:46;;;;;;;;;;;;;;;2.52;52.96;100616.10;134165;1298;22473;-85
2023/03/28 14:50:47;;;;;;;;;;;;;;;2.62;51.71;100613.17;134152;1296;22495;-83
2023/03/28 14:53:52;;;;;;;;;;;;;;;2.59;51.18;100621.06;134282;1298;23289;-87
2023/03/28 14:57:16;;;;;;;;;;;;;;;2.58;51.15;100632.78;134292;1296;23206;-87
2023/03/28 15:00:59;;;;;;;;;;;;;;;;;;;;;
2023/03/28 15:04:04;;;;;;;;;;;;;;;2.59;50.99;100637.45;134299;1299;22525;-87
2023/03/28 15:07:40;;;;;;;;;;;;;;;;;;;;;
2023/03/28 15:10:47;;;;;;;;;;;;;;;2.76;51.34;100652.91;134277;1298;22458;-86
2023/03/28 15:14:32;;;;;;;;;;;;;;;2.80;50.01;100651.79;133950;1299;23425;-82
2023/03/28 15:17:55;;;;;;;;;;;;;;;2.76;49.73;100662.52;134193;1296;22473;-86
2023/03/28 15:21:17;;;;;;;;;;;;;;;;;;;;;
2023/03/28 15:24:44;;;;;;;;;;;;;;;2.83;49.54;100667.84;134252;1298;22456;-83
2023/03/28 15:27:54;;;;;;;;;;;;;;;2.76;48.16;100671.09;134266;1299;22493;-86
2023/03/28 15:30:59;;;;;;;;;;;;;;;2.66;48.20;100684.64;134296;1297;23090;-83
2023/03/28 15:34:03;;;;;;;;;;;;;;;2.62;48.03;100687.38;134146;1302;22466;-84
2023/03/28 15:37:07;;;;;;;;;;;;;;;2.56;46.49;100692.89;134208;1298;22464;-85
2023/03/28 15:40:28;;;;;;;;;;;;;;;2.48;48.08;100702.45;134225;1298;23221;-86
2023/03/28 15:44:02;;;;;;;;;;;;;;;2.44;47.79;100700.78;134250;1297;22506;-87
2023/03/28 15:47:09;;;;;;;;;;;;;;;2.40;46.97;100709.99;134081;1298;23557;-84
2023/03/28 15:50:40;;;;;;;;;;;;;;;;;;;;;
2023/03/28 15:53:41;;;;;;;;;;;;;;;2.31;47.37;100724.37;134176;1288;22490;-86
2023/03/28 15:56:46;;;;;;;;;;;;;;;2.29;47.04;100723.65;134071;1297;23116;-84
2023/03/28 15:59:49;;;;;;;;;;;;;;;2.23;47.22;100726.98;134299;1295;22458;-84
2023/03/28 16:03:10;;;;;;;;;;;;;;;2.19;47.00;100731.02;134178;1298;22497;-84
2023/03/28 16:06:21;;;;;;;;;;;;;;;2.14;46.32;100727.34;134162;1296;23383;-83
2023/03/28 16:09:48;;;;;;;;;;;;;;;;;;;;;
2023/03/28 16:12:52;;;;;;;;;;;;;;;2.08;46.00;100735.98;134133;1297;23136;-79
2023/03/28 16:16:34;;;;;;;;;;;;;;;2.03;45.56;100740.31;134030;1297;23424;-82
2023/03/28 16:20:25;;;;;;;;;;;;;;;;;;;;;
2023/03/28 16:23:35;;;;;;;;;;;;;;;1.95;46.54;100751.95;134190;1297;23254;-83
2023/03/28 16:26:39;;;;;;;;;;;;;;;1.91;45.42;100754.80;134182;1298;23206;-82
2023/03/28 16:29:51;;;;;;;;;;;;;;;;;;;;;
2023/03/28 16:32:52;;;;;;;;;;;;;;;1.83;45.93;100761.26;134284;1297;22445;-82
2023/03/28 16:35:56;;;;;;;;;;;;;;;1.78;46.65;100763.62;134086;1297;22471;-81
2023/03/28 16:38:59;;;;;;;;;;;;;;;1.76;47.28;100761.33;134190;1296;23140;-81
2023/03/28 16:42:03;;;;;;;;;;;;;;;1.71;46.27;100762.29;134238;1297;22471;-82
2023/03/28 16:45:04;;;;;;;;;;;;;;;1.65;46.12;100763.02;134259;1296;22476;-81
2023/03/28 16:48:07;;;;;;;;;;;;;;;1.61;46.60;100773.75;134144;1298;22581;-82
2023/03/28 16:51:10;;;;;;;;;;;;;;;1.55;46.60;100777.26;134270;1297;22463;-81
2023/03/28 16:54:10;;;;;;;;;;;;;;;1.49;47.23;100779.04;134023;1298;23665;-81
2023/03/28 16:57:11;;;;;;;;;;;;;;;1.43;47.38;100779.02;134236;1298;22454;-81
2023/03/28 17:00:16;;;;;;;;;;;;;;;1.37;47.49;100785.30;134191;1297;22386;-81
2023/03/28 17:03:19;;;;;;;;;;;;;;;1.30;48.03;100792.33;134123;1297;22447;-81
2023/03/28 17:06:20;;;;;;;;;;;;;;;1.23;48.41;100794.17;134259;1297;22415;-81
2023/03/28 17:09:22;;;;;;;;;;;;;;;1.14;48.56;100794.18;134159;1297;22487;-82
2023/03/28 17:12:23;;;;;;;;;;;;;;;1.05;48.97;100798.02;134269;1297;22435;-83
2023/03/28 17:15:23;;;;;;;;;;;;;;;0.97;49.37;100800.77;134268;1296;22644;-84
2023/03/28 17:18:28;;;;;;;;;;;;;;;0.85;49.46;100798.77;134143;1297;22448;-84
2023/03/28 17:21:29;;;;;;;;;;;;;;;0.77;49.78;100802.57;134285;1298;22463;-85
2023/03/28 17:24:30;;;;;;;;;;;;;;;0.70;50.06;100809.77;134324;1298;22449;-80
2023/03/28 17:27:30;;;;;;;;;;;;;;;0.62;50.35;100809.49;134274;1298;22577;-79
2023/03/28 17:30:31;;;;;;;;;;;;;;;0.57;50.52;100810.67;134258;1297;22458;-81
2023/03/28 17:33:35;;;;;;;;;;;;;;;0.51;50.72;100816.73;134291;1297;22630;-82
2023/03/28 17:36:58;;;;;;;;;;;;;;;0.44;50.85;100817.98;134265;1297;22697;-83
2023/03/28 17:39:59;;;;;;;;;;;;;;;0.38;51.10;100819.00;134275;1296;23362;-82
2023/03/28 17:42:59;;;;;;;;;;;;;;;0.32;51.19;100822.86;134234;1298;22538;-84
2023/03/28 17:46:00;;;;;;;;;;;;;;;0.22;51.43;100823.02;134260;1296;23329;-78
2023/03/28 17:49:14;;;;;;;;;;;;;;;0.14;51.60;100825.19;134255;1298;23292;-78
2023/03/28 17:52:19;;;;;;;;;;;;;;;0.06;51.75;100829.27;134268;1296;23158;-77
2023/03/28 17:55:30;;;;;;;;;;;;;;;0.06;52.16;100833.67;134125;1297;22575;-77
2023/03/28 17:58:31;;;;;;;;;;;;;;;0.01;52.15;100832.02;134254;1297;22467;-77
2023/03/28 18:02:01;;;;;;;;;;;;;;;;;;;;;
2023/03/28 18:05:58;;;;;;;;;;;;;;;;;;;;;
2023/03/28 18:08:59;;;;;;;;;;;;;;;-0.17;52.06;100853.83;134322;1297;22478;-76
2023/03/28 18:15:49;;;;;;;;;;;;;;;-0.29;52.63;100852.33;134267;1296;22503;-77
2023/03/28 18:19:18;;;;;;;;;;;;;;;;;;;;;
2023/03/28 18:22:19;;;;;;;;;;;;;;;-0.40;53.03;100859.02;134295;1282;22517;-76
2023/03/28 18:25:32;;;;;;;;;;;;;;;-0.46;52.55;100861.02;134279;1297;23389;-77
2023/03/28 18:28:57;;;;;;;;;;;;;;;-0.51;52.77;100863.40;134308;1297;22475;-76
2023/03/28 18:32:00;;;;;;;;;;;;;;;-0.56;52.99;100865.17;134300;1297;22493;-79
2023/03/28 18:35:06;;;;;;;;;;;;;;;-0.61;53.16;100868.92;134277;1298;22421;-76
2023/03/28 18:38:07;;;;;;;;;;;;;;;-0.65;53.06;100871.21;134327;1296;22477;-76
2023/03/28 18:41:23;;;;;;;;;;;;;;;-0.68;53.14;100874.15;134275;1297;22566;-76
2023/03/28 18:44:32;;;;;;;;;;;;;;;-0.70;53.33;100874.57;134268;1297;22473;-76
2023/03/28 18:47:36;;;;;;;;;;;;;;;-0.73;53.43;100873.34;134298;1296;23160;-78
2023/03/28 18:50:37;;;;;;;;;;;;;;;-0.76;53.52;100873.67;134129;1298;23247;-76
2023/03/28 18:53:38;;;;;;;;;;;;;;;-0.78;53.47;100880.90;134125;1297;22514;-77
2023/03/28 18:56:38;;;;;;;;;;;;;;;-0.79;53.72;100884.77;134327;1297;22468;-77
2023/03/28 18:59:40;;;;;;;;;;;;;;;-0.81;53.46;100886.94;134292;1298;22448;-76
2023/03/28 19:02:44;;;;;;;;;;;;;;;-0.83;53.43;100887.02;134200;1297;22452;-76
2023/03/28 19:05:47;;;;;;;;;;;;;;;-0.85;53.68;100891.33;134186;1298;22508;-78
2023/03/28 19:08:47;;;;;;;;;;;;;;;-0.89;53.54;100893.41;134328;1298;22448;-77
2023/03/28 19:11:49;;;;;;;;;;;;;;;-0.93;53.62;100895.67;134313;1296;22466;-78
2023/03/28 19:14:53;;;;;;;;;;;;;;;-0.95;54.13;100894.59;134329;1296;22474;-77
2023/03/28 19:17:55;;;;;;;;;;;;;;;-0.98;53.80;100896.29;134336;1296;23093;-78
2023/03/28 19:20:59;;;;;;;;;;;;;;;-1.00;53.85;100894.45;134344;1295;23214;-77
2023/03/28 19:24:00;;;;;;;;;;;;;;;-1.00;53.82;100899.86;134164;1297;23322;-78
2023/03/28 19:27:01;;;;;;;;;;;;;;;-1.01;53.79;100896.27;134290;1297;22542;-78
2023/03/28 19:30:05;;;;;;;;;;;;;;;-1.07;54.29;100898.77;134112;1297;22457;-78